Time;durP1;ratioP1;P1;durP2;ratioP2;P2;SDS_P1;SDS_P2;PMS_P1;PMS_P2;Temp;Humidity;BMP_temperature;BMP_pressure;BME280_temperature;BME280_humidity;BME280_pressure;Samples;Min_cycle;Max_cycle;Signal;HPM_P1;HPM_P2
2023/12/17 00:01:43;;;;;;;77.10;30.83;;;;;;;1.97;100.00;101690.88;5086528;28;20440;-71
2023/12/17 00:04:09;;;;;;;69.67;31.70;;;;;;;1.95;100.00;101700.59;5087019;28;20490;-72
2023/12/17 00:06:37;;;;;;;55.90;28.70;;;;;;;1.90;100.00;101705.25;5085878;28;20944;-70
2023/12/17 00:09:04;;;;;;;56.60;29.63;;;;;;;1.91;100.00;101714.81;5087431;28;20429;-71
2023/12/17 00:11:31;;;;;;;43.63;27.37;;;;;;;1.94;100.00;101714.63;5087263;28;20440;-71
2023/12/17 00:13:57;;;;;;;38.27;26.67;;;;;;;1.98;100.00;101710.91;5087795;28;20433;-71
2023/12/17 00:16:26;;;;;;;40.63;26.50;;;;;;;2.00;100.00;101703.78;5087436;28;20893;-71
2023/12/17 00:18:52;;;;;;;42.90;26.33;;;;;;;2.05;100.00;101720.13;5088549;28;20889;-70
2023/12/17 00:21:19;;;;;;;44.73;28.97;;;;;;;1.98;100.00;101707.44;5091505;28;20452;-69
2023/12/17 00:23:46;;;;;;;44.30;27.97;;;;;;;2.07;100.00;101727.88;5091410;28;20449;-70
2023/12/17 00:26:13;;;;;;;37.43;25.17;;;;;;;1.90;100.00;101731.47;5091323;28;20445;-69
2023/12/17 00:28:39;;;;;;;40.77;25.63;;;;;;;1.95;100.00;101729.44;5091548;28;20433;-69
2023/12/17 00:31:06;;;;;;;40.17;26.33;;;;;;;2.00;100.00;101729.19;5091392;28;20444;-69
2023/12/17 00:33:34;;;;;;;38.93;25.40;;;;;;;2.04;100.00;101739.38;5092163;28;20533;-71
2023/12/17 00:36:01;;;;;;;47.00;29.53;;;;;;;2.06;100.00;101742.78;5089042;28;21003;-70
2023/12/17 00:38:27;;;;;;;44.77;29.60;;;;;;;2.00;100.00;101737.88;5071544;28;20537;-70
2023/12/17 00:40:54;;;;;;;47.10;29.70;;;;;;;1.90;100.00;101735.84;5089649;28;20437;-70
2023/12/17 00:43:21;;;;;;;52.50;31.40;;;;;;;1.77;100.00;101751.44;5091404;28;20445;-70
2023/12/17 00:45:47;;;;;;;48.20;29.83;;;;;;;1.68;100.00;101744.09;5091210;28;20445;-70
2023/12/17 00:48:14;;;;;;;44.97;28.83;;;;;;;1.71;100.00;101745.69;5091624;28;20441;-70
2023/12/17 00:50:42;;;;;;;46.87;26.90;;;;;;;1.78;100.00;101752.25;5086462;28;20510;-70
2023/12/17 00:53:09;;;;;;;35.37;25.33;;;;;;;1.79;100.00;101746.94;5090479;28;20843;-71
2023/12/17 00:55:36;;;;;;;102.80;30.63;;;;;;;1.81;100.00;101747.72;5091006;28;20560;-70
2023/12/17 00:58:02;;;;;;;36.37;25.57;;;;;;;1.81;100.00;101750.34;5091417;28;20462;-71
2023/12/17 01:00:29;;;;;;;50.67;25.50;;;;;;;1.92;100.00;101742.69;5091468;28;20437;-71
2023/12/17 01:02:56;;;;;;;38.47;24.43;;;;;;;1.99;100.00;101746.66;5091387;28;20901;-71
2023/12/17 01:05:22;;;;;;;38.60;23.63;;;;;;;2.05;100.00;101741.09;5091458;28;20437;-71
2023/12/17 01:07:51;;;;;;;65.50;26.07;;;;;;;2.07;100.00;101748.84;5090882;28;21002;-71
2023/12/17 01:10:17;;;;;;;41.20;23.23;;;;;;;2.12;100.00;101747.66;5091138;28;20920;-70
2023/12/17 01:12:44;;;;;;;62.37;25.33;;;;;;;2.12;100.00;101742.41;5091378;28;20499;-71
2023/12/17 01:15:12;;;;;;;36.60;24.20;;;;;;;2.15;100.00;101747.50;5091380;28;20441;-70
2023/12/17 01:17:38;;;;;;;112.20;27.33;;;;;;;2.20;100.00;101748.06;5091003;28;20485;-70
2023/12/17 01:20:08;;;;;;;40.63;22.87;;;;;;;2.21;100.00;101747.13;5091103;28;20446;-70
2023/12/17 01:22:34;;;;;;;65.50;24.67;;;;;;;2.27;100.00;101746.78;5091135;28;20444;-70
2023/12/17 01:25:03;;;;;;;38.73;23.00;;;;;;;2.29;100.00;101749.31;5091333;28;20441;-71
2023/12/17 01:27:29;;;;;;;104.63;25.40;;;;;;;2.31;100.00;101755.31;5091127;28;20441;-70
2023/12/17 01:29:56;;;;;;;48.37;23.83;;;;;;;2.28;100.00;101743.22;5091224;28;20449;-70
2023/12/17 01:32:23;;;;;;;43.83;21.73;;;;;;;2.32;100.00;101739.50;5090443;28;20469;-70
2023/12/17 01:34:50;;;;;;;73.03;22.83;;;;;;;2.29;100.00;101750.16;5091122;28;20437;-70
2023/12/17 01:37:16;;;;;;;66.00;23.90;;;;;;;2.28;100.00;101753.72;5090846;28;20563;-70
2023/12/17 01:39:43;;;;;;;189.13;31.23;;;;;;;2.22;100.00;101746.22;5091443;28;20441;-70
2023/12/17 01:42:11;;;;;;;38.17;23.17;;;;;;;2.09;100.00;101753.09;5094739;28;20506;-70
2023/12/17 01:44:38;;;;;;;94.80;25.43;;;;;;;2.03;100.00;101753.44;5094387;28;21013;-70
2023/12/17 01:47:06;;;;;;;32.93;23.17;;;;;;;2.06;100.00;101755.88;5094683;28;20476;-70
2023/12/17 01:49:33;;;;;;;108.47;27.37;;;;;;;2.00;100.00;101753.59;5094324;28;20473;-69
2023/12/17 01:51:58;;;;;;;61.90;23.77;;;;;;;2.01;100.00;101771.03;5094238;28;20432;-70
2023/12/17 01:54:25;;;;;;;86.73;26.60;;;;;;;1.93;100.00;101744.41;5094187;28;20510;-70
2023/12/17 01:56:53;;;;;;;89.40;23.70;;;;;;;1.91;100.00;101748.88;5094344;28;20293;-70
2023/12/17 01:59:21;;;;;;;152.30;25.40;;;;;;;1.95;100.00;101760.88;5094505;28;20433;-69
2023/12/17 02:01:49;;;;;;;46.93;21.67;;;;;;;1.66;100.00;101763.41;5094587;28;20494;-70
2023/12/17 02:04:16;;;;;;;56.57;23.43;;;;;;;1.73;100.00;101757.78;5094478;28;20441;-69
2023/12/17 02:06:43;;;;;;;59.00;23.40;;;;;;;1.60;100.00;101764.63;5094185;28;20440;-70
2023/12/17 02:09:10;;;;;;;53.37;22.37;;;;;;;1.64;100.00;101760.91;5094005;28;20828;-70
2023/12/17 02:11:37;;;;;;;36.20;21.57;;;;;;;1.70;100.00;101768.41;5094182;28;20502;-71
2023/12/17 02:14:03;;;;;;;60.67;22.23;;;;;;;1.71;100.00;101777.13;5094449;28;20445;-71
2023/12/17 02:16:31;;;;;;;75.00;25.30;;;;;;;1.79;100.00;101780.16;5093777;28;20476;-70
2023/12/17 02:18:58;;;;;;;29.20;20.80;;;;;;;1.77;100.00;101777.63;5093997;28;20857;-68
2023/12/17 02:21:25;;;;;;;54.07;23.80;;;;;;;1.77;100.00;101780.25;5094134;28;20475;-69
2023/12/17 02:23:53;;;;;;;69.93;22.17;;;;;;;1.68;100.00;101778.16;5093666;28;20506;-70
2023/12/17 02:26:20;;;;;;;125.77;25.57;;;;;;;1.54;100.00;101778.03;5094111;28;20443;-68
2023/12/17 02:28:47;;;;;;;82.57;23.10;;;;;;;1.41;100.00;101774.38;5093674;28;20437;-69
2023/12/17 02:31:14;;;;;;;99.30;27.03;;;;;;;1.46;100.00;101774.97;5093451;28;21026;-69
2023/12/17 02:33:41;;;;;;;70.97;21.80;;;;;;;1.40;100.00;101779.69;5093409;28;20441;-70
2023/12/17 02:36:08;;;;;;;75.20;23.07;;;;;;;1.36;100.00;101768.56;5089505;28;20519;-70
2023/12/17 02:38:35;;;;;;;30.20;19.97;;;;;;;1.33;100.00;101776.56;5073471;28;20442;-70
2023/12/17 02:41:03;;;;;;;46.80;21.27;;;;;;;1.35;100.00;101779.94;5073525;28;20446;-69
2023/12/17 02:43:30;;;;;;;50.10;19.10;;;;;;;1.25;100.00;101770.91;5073337;28;20434;-69
2023/12/17 02:45:57;;;;;;;35.97;19.13;;;;;;;1.19;100.00;101770.38;5072896;28;20445;-70
2023/12/17 02:48:23;;;;;;;113.03;24.27;;;;;;;1.27;100.00;101771.69;5073316;28;20508;-70
2023/12/17 02:50:50;;;;;;;93.47;20.57;;;;;;;1.22;100.00;101763.19;5073024;28;20446;-71
2023/12/17 02:53:17;;;;;;;76.37;20.10;;;;;;;1.19;100.00;101763.38;5073167;28;20442;-70
2023/12/17 02:55:43;;;;;;;84.70;21.43;;;;;;;1.14;100.00;101765.38;5071885;28;20855;-70
2023/12/17 02:58:12;;;;;;;84.13;21.20;;;;;;;1.11;100.00;101764.69;5072660;28;20440;-70
2023/12/17 03:00:38;;;;;;;43.30;19.40;;;;;;;1.08;100.00;101763.09;5073098;28;20521;-70
2023/12/17 03:03:05;;;;;;;50.17;20.30;;;;;;;1.09;100.00;101766.53;5072643;28;21019;-70
2023/12/17 03:05:32;;;;;;;65.43;20.07;;;;;;;0.80;100.00;101770.69;5072495;28;20442;-70
2023/12/17 03:07:58;;;;;;;49.37;20.10;;;;;;;0.61;100.00;101776.94;5072543;28;20438;-70
2023/12/17 03:10:25;;;;;;;47.80;18.30;;;;;;;0.53;100.00;101777.31;5072646;28;20499;-70
2023/12/17 03:12:52;;;;;;;39.87;18.33;;;;;;;0.46;100.00;101769.84;5072827;28;20545;-70
2023/12/17 03:15:20;;;;;;;43.63;17.93;;;;;;;0.36;100.00;101777.28;5072379;28;20438;-70
2023/12/17 03:17:47;;;;;;;40.43;19.97;;;;;;;0.37;100.00;101776.41;5072533;28;20926;-69
2023/12/17 03:20:14;;;;;;;34.33;17.97;;;;;;;0.37;100.00;101759.84;5072382;28;20442;-70
2023/12/17 03:22:40;;;;;;;52.20;19.30;;;;;;;0.38;100.00;101777.22;5072547;28;20493;-70
2023/12/17 03:25:08;;;;;;;33.77;18.97;;;;;;;0.31;100.00;101779.31;5072585;28;20511;-69
2023/12/17 03:27:35;;;;;;;19.53;17.17;;;;;;;0.23;100.00;101778.81;5072483;28;20446;-69
2023/12/17 03:30:01;;;;;;;24.53;17.67;;;;;;;0.25;100.00;101786.59;5072199;28;20498;-69
2023/12/17 03:32:29;;;;;;;27.63;17.50;;;;;;;0.20;100.00;101778.16;5072213;28;20478;-69
2023/12/17 03:34:56;;;;;;;25.77;17.93;;;;;;;0.09;100.00;101770.81;5072083;28;20446;-70
2023/12/17 03:37:23;;;;;;;27.00;17.40;;;;;;;0.08;100.00;101769.97;5085781;28;20477;-70
2023/12/17 03:39:50;;;;;;;27.23;18.50;;;;;;;0.15;100.00;101769.69;5092297;28;20438;-70
2023/12/17 03:42:17;;;;;;;23.10;18.63;;;;;;;0.21;100.00;101782.44;5092632;28;20498;-69
2023/12/17 03:44:44;;;;;;;21.93;17.97;;;;;;;0.18;100.00;101775.59;5092189;28;20441;-70
2023/12/17 03:47:11;;;;;;;26.27;18.87;;;;;;;0.19;100.00;101776.47;5092590;28;20959;-71
2023/12/17 03:49:39;;;;;;;25.63;18.47;;;;;;;0.19;100.00;101776.47;5092055;28;20953;-70
2023/12/17 03:52:07;;;;;;;23.97;20.10;;;;;;;0.33;100.00;101774.84;5092179;28;20924;-70
2023/12/17 03:54:34;;;;;;;24.03;18.87;;;;;;;0.38;100.00;101782.44;5092269;28;20823;-69
2023/12/17 03:57:00;;;;;;;27.83;19.07;;;;;;;0.45;100.00;101782.06;5092333;28;20528;-71
2023/12/17 03:59:27;;;;;;;24.37;17.83;;;;;;;0.45;100.00;101781.22;5091945;28;20441;-70
2023/12/17 04:01:54;;;;;;;22.77;19.17;;;;;;;0.47;100.00;101777.63;5091775;28;21010;-70
2023/12/17 04:04:21;;;;;;;25.20;19.80;;;;;;;0.49;100.00;101778.38;5091670;28;20450;-71
2023/12/17 04:06:49;;;;;;;27.73;20.57;;;;;;;0.59;100.00;101782.25;5091885;28;20514;-71
2023/12/17 04:09:15;;;;;;;30.70;21.73;;;;;;;0.63;100.00;101773.31;5092202;28;20438;-71
2023/12/17 04:11:42;;;;;;;24.90;21.17;;;;;;;0.48;100.00;101784.53;5091852;28;20445;-70
2023/12/17 04:14:09;;;;;;;28.27;20.63;;;;;;;0.43;100.00;101791.75;5092075;28;20504;-71
2023/12/17 04:16:35;;;;;;;25.30;19.20;;;;;;;0.43;100.00;101793.53;5091646;28;21061;-70
2023/12/17 04:19:02;;;;;;;27.47;20.53;;;;;;;0.40;100.00;101794.53;5092046;28;20495;-70
2023/12/17 04:21:29;;;;;;;24.00;19.63;;;;;;;0.45;100.00;101794.31;5091970;28;20437;-70
2023/12/17 04:23:57;;;;;;;21.53;19.13;;;;;;;0.51;100.00;101789.63;5091700;28;20445;-70
2023/12/17 04:26:24;;;;;;;24.77;19.63;;;;;;;0.64;100.00;101795.09;5091901;28;20487;-70
2023/12/17 04:28:51;;;;;;;22.70;18.70;;;;;;;0.67;100.00;101795.78;5091562;28;20890;-70
2023/12/17 04:31:17;;;;;;;22.23;18.53;;;;;;;0.72;100.00;101793.75;5091427;28;20442;-70
2023/12/17 04:33:44;;;;;;;24.27;18.13;;;;;;;0.83;100.00;101795.84;5091854;28;20433;-70
2023/12/17 04:36:11;;;;;;;20.33;18.20;;;;;;;0.88;100.00;101789.44;5088004;28;20972;-70
2023/12/17 04:38:38;;;;;;;23.67;17.93;;;;;;;0.96;100.00;101799.50;5071530;28;20566;-70
2023/12/17 04:41:07;;;;;;;25.37;18.93;;;;;;;1.04;100.00;101800.81;5071781;28;20529;-70
2023/12/17 04:43:33;;;;;;;22.80;17.30;;;;;;;1.13;100.00;101805.56;5071115;28;21019;-70
2023/12/17 04:46:00;;;;;;;24.10;17.17;;;;;;;1.19;100.00;101807.88;5071795;28;20541;-70
2023/12/17 04:48:26;;;;;;;21.50;17.03;;;;;;;1.21;100.00;101808.63;5071415;28;20457;-70
2023/12/17 04:50:53;;;;;;;20.03;15.63;;;;;;;1.23;100.00;101819.88;5071213;28;20872;-70
2023/12/17 04:53:20;;;;;;;18.67;16.57;;;;;;;1.29;100.00;101806.47;5071192;28;20559;-70
2023/12/17 04:55:46;;;;;;;22.53;16.50;;;;;;;1.33;100.00;101808.00;5071083;28;20880;-70
2023/12/17 04:58:14;;;;;;;21.97;16.03;;;;;;;1.39;100.00;101807.66;5071276;28;20477;-70
2023/12/17 05:00:41;;;;;;;22.00;16.57;;;;;;;1.39;100.00;101817.28;5070965;28;20501;-70
2023/12/17 05:03:08;;;;;;;20.57;16.50;;;;;;;1.39;100.00;101812.06;5071298;28;20452;-70
2023/12/17 05:05:35;;;;;;;21.90;17.40;;;;;;;1.44;100.00;101812.66;5071283;28;20438;-70
2023/12/17 05:08:02;;;;;;;22.83;17.57;;;;;;;1.45;100.00;101812.56;5071482;28;20807;-70
2023/12/17 05:10:28;;;;;;;22.57;16.97;;;;;;;1.46;100.00;101809.03;5071117;28;20503;-70
2023/12/17 05:12:55;;;;;;;19.37;15.90;;;;;;;1.49;100.00;101813.25;5070963;28;20438;-70
2023/12/17 05:15:23;;;;;;;20.57;17.60;;;;;;;1.38;100.00;101800.72;5073158;28;20438;-70
2023/12/17 05:17:50;;;;;;;21.53;17.77;;;;;;;1.43;100.00;101814.41;5074721;28;20473;-69
2023/12/17 05:20:17;;;;;;;22.67;17.03;;;;;;;1.43;100.00;101814.41;5074654;28;20930;-69
2023/12/17 05:22:43;;;;;;;21.00;16.63;;;;;;;1.46;100.00;101811.63;5074755;28;20426;-69
2023/12/17 05:25:11;;;;;;;20.57;16.23;;;;;;;1.48;100.00;101811.56;5077242;28;20868;-74
2023/12/17 05:27:38;;;;;;;22.43;17.63;;;;;;;1.46;100.00;101798.53;5085136;28;20436;-70
2023/12/17 05:30:06;;;;;;;18.60;15.70;;;;;;;1.51;100.00;101816.66;5084782;28;20468;-71
2023/12/17 05:32:34;;;;;;;25.53;16.13;;;;;;;1.52;100.00;101810.47;5083319;28;20818;-71
2023/12/17 05:35:01;;;;;;;22.17;16.03;;;;;;;1.55;100.00;101813.75;5084184;28;20441;-73
2023/12/17 05:37:28;;;;;;;19.10;16.17;;;;;;;1.55;100.00;101813.75;5083019;28;20476;-70
2023/12/17 05:39:55;;;;;;;19.87;15.00;;;;;;;1.53;100.00;101813.00;5082970;28;21008;-69
2023/12/17 05:42:22;;;;;;;19.13;15.13;;;;;;;1.54;100.00;101827.78;5084289;28;20424;-70
2023/12/17 05:44:49;;;;;;;23.63;15.30;;;;;;;1.49;99.53;101823.72;5084903;28;20496;-68
2023/12/17 05:47:15;;;;;;;18.37;15.50;;;;;;;1.44;100.00;101826.59;5083095;28;20819;-69
2023/12/17 05:49:44;;;;;;;20.40;15.80;;;;;;;1.49;99.48;101831.56;5083642;28;20437;-69
2023/12/17 05:52:10;;;;;;;19.87;15.97;;;;;;;1.53;99.87;101831.34;5084775;28;20478;-69
2023/12/17 05:54:38;;;;;;;20.37;16.03;;;;;;;1.57;99.19;101845.97;5083475;28;20438;-68
2023/12/17 05:57:06;;;;;;;20.10;16.90;;;;;;;1.52;99.70;101857.59;5083623;28;20483;-68
2023/12/17 05:59:32;;;;;;;22.77;16.70;;;;;;;1.48;99.49;101864.78;5084825;28;20437;-68
2023/12/17 06:01:59;;;;;;;20.13;15.07;;;;;;;1.49;98.13;101861.25;5083283;28;20978;-68
2023/12/17 06:04:26;;;;;;;19.93;15.97;;;;;;;1.46;98.94;101864.00;5083403;28;20475;-68
2023/12/17 06:06:55;;;;;;;19.60;16.00;;;;;;;1.42;99.17;101870.34;5084814;28;20429;-68
2023/12/17 06:09:22;;;;;;;20.67;15.73;;;;;;;1.43;98.77;101872.03;5078786;28;20445;-67
2023/12/17 06:11:49;;;;;;;19.70;14.57;;;;;;;1.39;99.39;101869.66;5074006;28;20474;-67
2023/12/17 06:14:17;;;;;;;18.80;15.17;;;;;;;1.34;98.65;101882.97;5073975;28;20446;-67
2023/12/17 06:16:43;;;;;;;19.33;15.73;;;;;;;1.39;98.69;101880.97;5073841;28;20450;-67
2023/12/17 06:19:10;;;;;;;16.80;14.70;;;;;;;1.49;99.22;101876.94;5073503;28;20476;-70
2023/12/17 06:21:37;;;;;;;21.57;16.47;;;;;;;1.60;99.27;101876.38;5073899;28;20515;-70
2023/12/17 06:24:07;;;;;;;21.57;15.80;;;;;;;1.69;98.16;101874.13;5073346;28;20953;-71
2023/12/17 06:26:36;;;;;;;21.87;18.13;;;;;;;1.86;97.71;101876.69;5078384;28;20452;-69
2023/12/17 06:29:03;;;;;;;26.23;19.30;;;;;;;2.05;97.24;101877.38;5092576;28;20441;-70
2023/12/17 06:31:31;;;;;;;23.03;16.83;;;;;;;2.17;96.93;101871.44;5093493;28;20437;-69
2023/12/17 06:33:58;;;;;;;18.77;16.20;;;;;;;2.20;95.59;101881.78;5093773;28;20540;-68
2023/12/17 06:36:24;;;;;;;20.03;15.60;;;;;;;2.29;97.19;101876.00;5089222;28;20430;-69
2023/12/17 06:38:51;;;;;;;19.67;15.00;;;;;;;2.30;95.91;101877.72;5073182;28;20531;-69
2023/12/17 06:41:19;;;;;;;17.17;14.57;;;;;;;2.47;98.44;101869.75;5073568;28;20438;-68
2023/12/17 06:43:46;;;;;;;19.90;15.90;;;;;;;2.57;96.20;101868.28;5073228;28;20445;-68
2023/12/17 06:46:16;;;;;;;20.47;17.40;;;;;;;2.54;95.87;101871.09;5073324;28;20442;-67
2023/12/17 06:48:43;;;;;;;24.03;17.20;;;;;;;2.56;95.68;101876.22;5072877;28;21107;-69
2023/12/17 06:51:10;;;;;;;19.63;17.40;;;;;;;2.58;95.18;101872.59;5072994;28;20449;-70
2023/12/17 06:53:37;;;;;;;24.53;18.43;;;;;;;2.57;94.72;101880.56;5071876;28;20468;-69
2023/12/17 06:56:05;;;;;;;21.47;16.17;;;;;;;2.55;94.55;101887.66;5072568;28;20434;-68
2023/12/17 06:58:33;;;;;;;19.90;15.47;;;;;;;2.48;93.16;101875.81;5072799;28;20476;-68
2023/12/17 07:01:00;;;;;;;25.37;15.60;;;;;;;2.55;92.82;101878.03;5072613;28;20507;-70
2023/12/17 07:03:27;;;;;;;18.53;15.67;;;;;;;2.50;92.75;101889.72;5072811;28;20433;-69
2023/12/17 07:05:54;;;;;;;20.70;16.37;;;;;;;2.54;93.47;101892.09;5072936;28;20438;-69
2023/12/17 07:08:20;;;;;;;21.63;16.50;;;;;;;2.50;92.88;101880.09;5072902;28;20442;-74
2023/12/17 07:10:47;;;;;;;21.83;17.10;;;;;;;2.56;93.77;101884.97;5072735;28;20500;-72
2023/12/17 07:13:14;;;;;;;20.70;16.73;;;;;;;2.71;94.50;101888.50;5072445;28;20438;-71
2023/12/17 07:15:43;;;;;;;21.30;16.50;;;;;;;2.76;94.31;101876.81;5072128;28;20438;-69
2023/12/17 07:18:10;;;;;;;20.60;15.80;;;;;;;2.95;94.17;101887.94;5072615;28;20477;-71
2023/12/17 07:20:37;;;;;;;20.23;16.37;;;;;;;3.47;95.28;101876.00;5072785;28;20438;-69
2023/12/17 07:23:03;;;;;;;24.00;17.53;;;;;;;3.69;91.98;101886.06;5072224;28;20492;-70
2023/12/17 07:25:30;;;;;;;19.37;14.37;;;;;;;4.41;91.26;101884.91;5071056;28;20446;-75
2023/12/17 07:27:57;;;;;;;17.50;13.00;;;;;;;4.74;87.63;101890.63;5091347;28;20445;-70
2023/12/17 07:30:24;;;;;;;14.17;12.67;;;;;;;5.12;86.35;101896.84;5076124;28;20199;-70
2023/12/17 07:32:52;;;;;;;14.30;12.80;;;;;;;5.17;84.06;101899.16;5081423;28;20227;-70
2023/12/17 07:35:19;;;;;;;13.20;11.90;;;;;;;5.34;85.92;101876.00;5070274;28;20238;-71
2023/12/17 07:37:45;;;;;;;12.50;11.20;;;;;;;5.50;86.33;101881.91;5068607;28;20219;-71
2023/12/17 07:40:12;;;;;;;12.23;11.10;;;;;;;5.61;83.46;101892.53;5070255;28;20196;-72
2023/12/17 07:42:39;;;;;;;12.97;11.57;;;;;;;5.77;83.64;101890.53;5070746;28;20241;-71
2023/12/17 07:45:08;;;;;;;12.50;11.30;;;;;;;5.79;82.31;101900.97;5071939;28;20233;-70
2023/12/17 07:47:34;;;;;;;12.93;11.73;;;;;;;6.23;81.80;101905.78;5071875;28;20196;-71
2023/12/17 07:50:02;;;;;;;12.43;11.23;;;;;;;6.54;80.14;101913.19;5072503;28;20192;-70
2023/12/17 07:52:29;;;;;;;11.87;10.63;;;;;;;6.77;79.54;101915.00;5072253;28;20277;-70
2023/12/17 07:54:56;;;;;;;11.40;10.30;;;;;;;7.05;76.94;101915.47;5072144;28;20572;-69
2023/12/17 07:57:22;;;;;;;14.20;11.07;;;;;;;7.29;74.98;101929.50;5071566;28;20196;-70
2023/12/17 07:59:50;;;;;;;10.67;9.67;;;;;;;7.41;75.49;101917.16;5072161;28;20208;-70
2023/12/17 08:02:17;;;;;;;11.70;10.03;;;;;;;7.23;76.09;101914.09;5071630;28;20202;-69
2023/12/17 08:04:44;;;;;;;10.93;9.83;;;;;;;7.25;73.36;101921.91;5071689;28;20203;-69
2023/12/17 08:07:13;;;;;;;12.27;10.97;;;;;;;7.20;75.07;101913.47;5071462;28;20200;-70
2023/12/17 08:09:40;;;;;;;10.23;9.23;;;;;;;7.37;75.09;101905.97;5071945;28;20688;-70
2023/12/17 08:12:09;;;;;;;9.73;8.57;;;;;;;7.40;72.51;101912.81;5071580;28;20196;-70
2023/12/17 08:14:36;;;;;;;8.90;8.20;;;;;;;6.99;74.25;101909.81;5071471;28;20192;-70
2023/12/17 08:17:03;;;;;;;8.70;7.90;;;;;;;7.13;76.61;101896.38;5071477;28;20192;-70
2023/12/17 08:19:30;;;;;;;8.00;7.27;;;;;;;7.14;74.02;101906.03;5071788;28;20234;-69
2023/12/17 08:21:56;;;;;;;9.33;7.93;;;;;;;7.10;74.62;101896.66;5071408;28;20509;-70
2023/12/17 08:24:25;;;;;;;9.30;8.30;;;;;;;7.20;75.85;101900.28;5071505;28;20188;-70
2023/12/17 08:26:54;;;;;;;11.20;8.00;;;;;;;7.11;73.33;101908.91;5071553;28;20196;-70
2023/12/17 08:29:21;;;;;;;8.60;7.90;;;;;;;6.98;74.77;101898.38;5071416;28;20613;-70
2023/12/17 08:31:47;;;;;;;8.63;8.03;;;;;;;7.40;73.18;101904.88;5070899;28;20634;-70
2023/12/17 08:34:14;;;;;;;9.57;8.40;;;;;;;7.70;73.65;101897.22;5071183;28;20197;-70
2023/12/17 08:36:41;;;;;;;7.80;7.20;;;;;;;7.62;71.04;101902.28;5071303;28;20583;-69
2023/12/17 08:39:11;;;;;;;8.23;7.63;;;;;;;7.20;72.85;101882.63;5071428;28;20293;-72
2023/12/17 08:41:39;;;;;;;6.90;6.30;;;;;;;6.90;72.60;101884.91;5071699;28;20202;-70
2023/12/17 08:44:07;;;;;;;7.03;6.43;;;;;;;6.72;75.05;101870.44;5071397;28;20557;-70
2023/12/17 08:46:34;;;;;;;7.30;6.80;;;;;;;6.43;72.86;101839.19;5071146;28;20195;-70
2023/12/17 08:49:02;;;;;;;6.83;6.33;;;;;;;6.80;71.62;101885.69;5072612;28;20302;-69
2023/12/17 08:51:29;;;;;;;7.03;6.43;;;;;;;6.82;73.24;101876.69;5075224;28;20256;-69
2023/12/17 08:53:56;;;;;;;8.70;7.80;;;;;;;7.02;73.12;101870.78;5075043;28;20191;-70
2023/12/17 08:56:22;;;;;;;6.83;6.30;;;;;;;6.86;73.09;101866.78;5074709;28;20201;-70
2023/12/17 08:58:50;;;;;;;7.60;6.93;;;;;;;6.72;72.83;101864.28;5074887;28;20286;-70
2023/12/17 09:01:18;;;;;;;6.73;6.13;;;;;;;6.68;74.15;101853.13;5075015;28;20205;-70
2023/12/17 09:03:45;;;;;;;6.27;5.87;;;;;;;6.57;72.08;101857.53;5074983;28;20200;-70
2023/12/17 09:06:11;;;;;;;7.70;6.47;;;;;;;6.29;73.49;101840.19;5074896;28;20549;-70
2023/12/17 09:08:38;;;;;;;7.40;6.80;;;;;;;6.41;74.49;101843.75;5075062;28;20290;-70
2023/12/17 09:11:05;;;;;;;6.90;6.40;;;;;;;6.45;75.11;101834.66;5075172;28;20188;-70
2023/12/17 09:13:32;;;;;;;7.23;6.73;;;;;;;6.62;73.80;101832.44;5074994;28;20192;-70
2023/12/17 09:16:00;;;;;;;7.63;7.03;;;;;;;6.70;73.06;101829.25;5075013;28;20278;-70
2023/12/17 09:18:27;;;;;;;9.87;8.97;;;;;;;6.68;73.47;101832.00;5074816;28;20277;-71
2023/12/17 09:20:54;;;;;;;13.00;11.83;;;;;;;6.56;73.04;101821.50;5093124;28;20280;-70
2023/12/17 09:23:20;;;;;;;11.00;10.00;;;;;;;6.81;75.64;101816.91;5095082;28;20187;-69
2023/12/17 09:25:47;;;;;;;7.10;6.53;;;;;;;6.88;73.51;101814.66;5094928;28;20268;-69
2023/12/17 09:28:14;;;;;;;8.10;6.47;;;;;;;6.99;74.35;101819.97;5094657;28;20202;-70
2023/12/17 09:30:41;;;;;;;6.97;6.47;;;;;;;7.27;73.17;101822.19;5095024;28;20202;-69
2023/12/17 09:33:09;;;;;;;6.93;6.33;;;;;;;7.48;73.56;101817.88;5095026;28;20223;-69
2023/12/17 09:35:38;;;;;;;8.20;7.40;;;;;;;7.76;72.26;101812.94;5095049;28;20199;-70
2023/12/17 09:38:05;;;;;;;7.20;6.70;;;;;;;7.96;71.42;101811.38;5074536;28;20195;-69
2023/12/17 09:40:32;;;;;;;9.13;8.23;;;;;;;8.25;69.95;101820.47;5074280;28;20227;-69
2023/12/17 09:43:00;;;;;;;8.37;7.67;;;;;;;8.06;69.58;101817.59;5073867;28;20196;-69
2023/12/17 09:45:27;;;;;;;9.13;8.37;;;;;;;8.24;69.31;101813.47;5074263;28;20191;-69
2023/12/17 09:47:54;;;;;;;9.87;8.90;;;;;;;8.11;69.25;101812.75;5074140;28;20247;-70
2023/12/17 09:50:24;;;;;;;9.70;8.80;;;;;;;8.22;70.38;101810.13;5073929;28;20199;-69
2023/12/17 09:52:51;;;;;;;9.20;7.87;;;;;;;8.40;69.34;101811.28;5074069;28;20196;-70
2023/12/17 09:55:18;;;;;;;7.90;7.30;;;;;;;8.44;68.73;101810.06;5074186;28;20196;-70
2023/12/17 09:57:45;;;;;;;8.23;7.53;;;;;;;8.38;69.17;101805.28;5073817;28;20606;-70
2023/12/17 10:00:13;;;;;;;7.90;7.27;;;;;;;8.50;68.84;101812.22;5073295;28;20219;-70
2023/12/17 10:02:40;;;;;;;7.53;7.03;;;;;;;8.34;67.60;101811.78;5073958;28;20278;-70
2023/12/17 10:05:08;;;;;;;6.13;5.63;;;;;;;8.46;67.71;101813.44;5073831;28;20581;-69
2023/12/17 10:07:37;;;;;;;5.40;5.00;;;;;;;8.20;66.67;101810.22;5074237;28;20196;-70
2023/12/17 10:10:04;;;;;;;7.87;7.17;;;;;;;7.91;68.85;101805.59;5073704;28;20199;-69
2023/12/17 10:12:31;;;;;;;7.90;7.20;;;;;;;7.68;70.51;101785.44;5073653;28;20227;-70
2023/12/17 10:14:58;;;;;;;8.20;7.47;;;;;;;7.40;70.98;101797.34;5073782;28;20200;-69
2023/12/17 10:17:26;;;;;;;7.77;7.17;;;;;;;7.50;71.30;101794.78;5073825;28;20245;-69
2023/12/17 10:19:53;;;;;;;10.20;9.20;;;;;;;7.20;70.90;101802.47;5073503;28;20598;-69
2023/12/17 10:22:20;;;;;;;8.60;7.57;;;;;;;7.40;72.12;101799.13;5073555;28;20192;-70
2023/12/17 10:24:49;;;;;;;8.37;7.57;;;;;;;7.10;72.38;101790.94;5073850;28;20279;-69
2023/12/17 10:27:18;;;;;;;8.17;7.53;;;;;;;6.94;72.37;101795.72;5073419;28;20613;-69
2023/12/17 10:29:49;;;;;;;9.33;8.50;;;;;;;7.15;72.60;101778.19;5073175;28;20206;-69
2023/12/17 10:32:21;;;;;;;12.10;8.20;;;;;;;7.14;73.46;101777.34;5073505;28;20227;-69
2023/12/17 10:34:49;;;;;;;9.23;8.43;;;;;;;7.26;72.89;101775.56;5073333;28;20188;-70
2023/12/17 10:37:19;;;;;;;9.93;9.03;;;;;;;7.18;73.11;101773.50;5073186;28;20698;-69
2023/12/17 10:39:50;;;;;;;8.77;8.07;;;;;;;7.34;71.38;101783.72;5073643;28;20220;-70
2023/12/17 10:42:18;;;;;;;9.37;8.47;;;;;;;7.13;73.25;101770.38;5073290;28;20640;-69
2023/12/17 10:44:47;;;;;;;11.60;10.40;;;;;;;7.21;73.17;101761.84;5073549;28;20192;-70
2023/12/17 10:47:16;;;;;;;11.43;9.70;;;;;;;7.43;73.95;101761.88;5073693;28;20200;-71
2023/12/17 10:49:44;;;;;;;11.37;10.10;;;;;;;7.29;73.95;101754.16;5072510;28;20725;-70
2023/12/17 10:52:10;;;;;;;10.33;9.23;;;;;;;6.98;74.64;101746.97;5087363;28;20662;-71
2023/12/17 10:54:37;;;;;;;11.17;8.53;;;;;;;6.90;76.20;101746.69;5093106;28;20195;-71
2023/12/17 10:57:10;;;;;;;9.27;8.47;;;;;;;6.92;76.96;101735.06;5088063;28;20206;-66
2023/12/17 10:59:40;;;;;;;11.33;9.70;;;;;;;6.98;76.25;101734.56;5093118;28;20687;-68
2023/12/17 11:02:11;;;;;;;9.40;8.50;;;;;;;6.88;76.41;101723.03;5087741;28;20207;-73
2023/12/17 11:04:44;;;;;;;8.83;7.37;;;;;;;6.51;75.30;101733.88;5073080;28;20276;-68
2023/12/17 11:07:11;;;;;;;8.03;7.23;;;;;;;6.44;74.90;101722.06;5078912;28;20187;-71
2023/12/17 11:09:37;;;;;;;7.80;7.20;;;;;;;6.38;75.41;101718.13;5077727;28;20199;-72
2023/12/17 11:12:07;;;;;;;8.50;7.70;;;;;;;6.50;76.09;101711.06;5087616;28;20656;-72
2023/12/17 11:14:34;;;;;;;10.20;7.63;;;;;;;6.51;75.70;101708.31;5094693;28;20199;-71
2023/12/17 11:17:02;;;;;;;8.37;7.57;;;;;;;6.45;74.61;101702.66;5104340;28;20206;-72